createdAt,value
2019-04-25T00:00:11.747Z,11.55
2019-04-25T00:01:11.646Z,11.57
2019-04-25T00:02:11.591Z,11.61
2019-04-25T00:03:12.266Z,11.57
2019-04-25T00:04:11.732Z,11.49
2019-04-25T00:05:11.509Z,11.49
2019-04-25T00:06:12.180Z,11.46
2019-04-25T00:07:11.928Z,11.43
2019-04-25T00:08:11.592Z,11.40
2019-04-25T00:09:11.959Z,11.52
2019-04-25T00:10:11.743Z,11.44
2019-04-25T00:11:11.718Z,11.39
2019-04-25T00:12:12.123Z,11.39
2019-04-25T00:13:11.753Z,11.43
2019-04-25T00:14:13.221Z,11.39
2019-04-25T00:15:11.308Z,11.42
2019-04-25T00:16:11.625Z,11.37
2019-04-25T00:17:11.444Z,11.39
2019-04-25T00:18:11.918Z,11.39
2019-04-25T00:19:11.750Z,11.40
2019-04-25T00:20:11.439Z,11.29
2019-04-25T00:21:12.173Z,11.36
2019-04-25T00:22:11.792Z,11.28
2019-04-25T00:23:11.745Z,11.25
2019-04-25T00:24:12.176Z,11.29
2019-04-25T00:25:17.153Z,11.32
2019-04-25T00:26:11.383Z,11.37
2019-04-25T00:27:11.761Z,11.40
2019-04-25T00:28:11.654Z,11.28
2019-04-25T00:29:11.058Z,11.25
2019-04-25T00:30:11.354Z,11.32
2019-04-25T00:31:11.981Z,11.33
2019-04-25T00:32:11.718Z,11.29
2019-04-25T00:33:11.620Z,11.27
2019-04-25T00:34:12.090Z,11.27
2019-04-25T00:35:11.807Z,11.27
2019-04-25T00:36:12.061Z,11.27
2019-04-25T00:37:12.272Z,11.33
2019-04-25T00:38:12.204Z,11.27
2019-04-25T00:39:11.911Z,11.27
2019-04-25T00:40:11.869Z,11.25
2019-04-25T00:41:11.613Z,11.29
2019-04-25T00:42:12.193Z,11.28
2019-04-25T00:43:11.412Z,11.27
2019-04-25T00:44:12.134Z,11.35
2019-04-25T00:45:11.904Z,11.33
2019-04-25T00:46:11.397Z,11.25
2019-04-25T00:47:11.749Z,11.37
2019-04-25T00:48:12.245Z,11.32
2019-04-25T00:49:12.169Z,11.28
2019-04-25T00:50:11.996Z,11.28
2019-04-25T00:51:11.810Z,11.32
2019-04-25T00:52:11.588Z,11.27
2019-04-25T00:53:11.353Z,11.25
2019-04-25T00:54:11.879Z,11.19
2019-04-25T00:55:11.627Z,11.25
2019-04-25T00:56:11.245Z,11.24
2019-04-25T00:57:12.003Z,11.29
2019-04-25T00:58:11.471Z,11.27
2019-04-25T00:59:11.844Z,11.27
2019-04-25T01:00:11.613Z,11.18
2019-04-25T01:01:12.007Z,11.19
2019-04-25T01:02:11.448Z,11.18
2019-04-25T01:03:11.526Z,11.21
2019-04-25T01:04:12.209Z,11.11
2019-04-25T01:05:11.646Z,11.18
2019-04-25T01:06:11.956Z,11.17
2019-04-25T01:07:10.386Z,11.19
2019-04-25T01:08:11.965Z,11.19
2019-04-25T01:09:10.330Z,11.24
2019-04-25T01:10:11.819Z,11.21
2019-04-25T01:11:11.499Z,11.10
2019-04-25T01:12:11.575Z,11.17
2019-04-25T01:13:11.251Z,11.17
2019-04-25T01:14:11.874Z,11.17
2019-04-25T01:15:11.578Z,11.14
2019-04-25T01:16:10.205Z,11.10
2019-04-25T01:17:11.598Z,11.14
2019-04-25T01:18:10.168Z,11.10
2019-04-25T01:19:10.165Z,11.25
2019-04-25T01:20:10.134Z,11.28
2019-04-25T01:21:10.123Z,11.27
2019-04-25T01:22:10.096Z,11.21
2019-04-25T01:23:10.079Z,11.24
2019-04-25T01:24:10.077Z,11.18
2019-04-25T01:25:10.042Z,11.24
2019-04-25T01:26:10.043Z,11.19
2019-04-25T01:27:10.011Z,11.11
2019-04-25T01:28:09.984Z,11.22
2019-04-25T01:29:09.967Z,11.21
2019-04-25T01:30:09.952Z,11.22
2019-04-25T01:31:09.932Z,11.21
2019-04-25T01:32:09.932Z,11.22
2019-04-25T01:33:09.903Z,11.15
2019-04-25T01:34:09.871Z,11.14
2019-04-25T01:35:09.861Z,11.17
2019-04-25T01:36:09.837Z,11.18
2019-04-25T01:37:09.844Z,11.17
2019-04-25T01:38:09.805Z,11.10
2019-04-25T01:39:09.787Z,11.17
2019-04-25T01:40:09.766Z,11.11
2019-04-25T01:41:09.747Z,11.11
2019-04-25T01:42:09.751Z,11.10
2019-04-25T01:43:09.711Z,11.11
2019-04-25T01:44:09.698Z,11.17
2019-04-25T01:45:09.676Z,11.15
2019-04-25T01:46:09.664Z,11.15
2019-04-25T01:47:09.641Z,11.10
2019-04-25T01:48:09.642Z,11.14
2019-04-25T01:49:09.600Z,11.07
2019-04-25T01:50:09.582Z,11.02
2019-04-25T01:51:09.568Z,10.99
2019-04-25T01:52:09.553Z,10.99
2019-04-25T01:53:09.531Z,10.99
2019-04-25T01:54:09.530Z,10.99
2019-04-25T01:55:09.491Z,11.02
2019-04-25T01:56:09.474Z,11.02
2019-04-25T01:57:09.468Z,10.97
2019-04-25T01:58:09.437Z,10.97
2019-04-25T01:59:09.421Z,10.92
2019-04-25T02:00:09.418Z,10.99
2019-04-25T02:01:09.384Z,10.99
2019-04-25T02:02:09.396Z,10.97
2019-04-25T02:03:09.352Z,10.99
2019-04-25T02:04:09.330Z,11.07
2019-04-25T02:05:09.325Z,11.10
2019-04-25T02:06:09.289Z,11.00
2019-04-25T02:07:09.271Z,11.17
2019-04-25T02:08:09.305Z,11.02
2019-04-25T02:09:09.234Z,11.11
2019-04-25T02:10:09.216Z,11.09
2019-04-25T02:11:09.198Z,11.06
2019-04-25T02:12:09.178Z,11.02
2019-04-25T02:13:09.155Z,11.00
2019-04-25T02:14:09.162Z,11.06
2019-04-25T02:15:09.126Z,11.11
2019-04-25T02:16:09.106Z,11.10
2019-04-25T02:17:09.090Z,11.09
2019-04-25T02:18:09.086Z,11.17
2019-04-25T02:19:09.053Z,11.14
2019-04-25T02:20:09.032Z,11.11
2019-04-25T02:21:09.025Z,11.14
2019-04-25T02:22:08.995Z,11.17
2019-04-25T02:23:08.991Z,11.18
2019-04-25T02:24:08.959Z,11.11
2019-04-25T02:25:08.948Z,11.15
2019-04-25T02:26:15.674Z,11.21
2019-04-25T02:27:08.898Z,11.19
2019-04-25T02:28:08.883Z,11.21
2019-04-25T02:29:08.864Z,11.19
2019-04-25T02:30:08.852Z,11.17
2019-04-25T02:31:09.031Z,11.21
2019-04-25T02:32:09.258Z,11.18
2019-04-25T02:33:09.328Z,11.17
2019-04-25T02:34:08.879Z,11.19
2019-04-25T02:35:09.752Z,11.11
2019-04-25T02:36:08.967Z,11.09
2019-04-25T02:37:09.580Z,11.18
2019-04-25T02:38:09.109Z,11.14
2019-04-25T02:39:09.058Z,11.07
2019-04-25T02:40:09.146Z,11.10
2019-04-25T02:41:09.150Z,11.07
2019-04-25T02:42:08.893Z,11.09
2019-04-25T02:43:08.604Z,11.14
2019-04-25T02:44:10.126Z,11.03
2019-04-25T02:45:08.748Z,11.04
2019-04-25T02:46:08.549Z,11.02
2019-04-25T02:47:08.558Z,10.99
2019-04-25T02:48:08.516Z,11.00
2019-04-25T02:49:09.731Z,11.04
2019-04-25T02:50:09.204Z,10.96
2019-04-25T02:51:08.459Z,11.03
2019-04-25T02:52:12.847Z,11.06
2019-04-25T02:53:08.444Z,11.04
2019-04-25T02:54:08.401Z,11.02
2019-04-25T02:55:10.644Z,11.04
2019-04-25T02:56:25.996Z,11.11
2019-04-25T02:57:08.424Z,11.11
2019-04-25T02:58:10.111Z,11.10
2019-04-25T02:59:09.190Z,11.11
2019-04-25T03:00:08.811Z,11.17
2019-04-25T03:01:18.052Z,11.17
2019-04-25T03:02:09.213Z,11.11
2019-04-25T03:03:08.658Z,11.21
2019-04-25T03:04:11.182Z,11.19
2019-04-25T03:05:09.962Z,11.15
2019-04-25T03:06:09.690Z,11.14
2019-04-25T03:07:11.269Z,11.11
2019-04-25T03:08:10.391Z,11.11
2019-04-25T03:09:09.835Z,11.15
2019-04-25T03:10:09.702Z,11.17
2019-04-25T03:11:09.303Z,11.19
2019-04-25T03:12:09.384Z,11.11
2019-04-25T03:13:11.477Z,11.18
2019-04-25T03:14:10.035Z,11.10
2019-04-25T03:15:09.975Z,11.09
2019-04-25T03:16:10.862Z,11.15
2019-04-25T03:17:09.821Z,11.09
2019-04-25T03:18:11.033Z,11.17
2019-04-25T03:19:09.260Z,11.21
2019-04-25T03:20:11.155Z,11.11
2019-04-25T03:21:13.318Z,11.18
2019-04-25T03:22:11.414Z,11.22
2019-04-25T03:23:09.591Z,11.27
2019-04-25T03:24:11.376Z,11.24
2019-04-25T03:25:11.562Z,11.22
2019-04-25T03:26:07.823Z,11.22
2019-04-25T03:27:07.786Z,11.24
2019-04-25T03:28:07.796Z,11.19
2019-04-25T03:29:07.780Z,11.21
2019-04-25T03:30:13.022Z,11.19
2019-04-25T03:31:15.241Z,11.18
2019-04-25T03:32:12.093Z,11.27
2019-04-25T03:33:13.041Z,11.28
2019-04-25T03:34:12.099Z,11.25
2019-04-25T03:35:07.662Z,11.33
2019-04-25T03:36:07.881Z,11.37
2019-04-25T03:37:07.688Z,11.35
2019-04-25T03:38:08.381Z,11.29
2019-04-25T03:39:07.586Z,11.36
2019-04-25T03:40:07.888Z,11.36
2019-04-25T03:41:07.535Z,11.33
2019-04-25T03:42:07.804Z,11.36
2019-04-25T03:43:07.498Z,11.32
2019-04-25T03:44:08.010Z,11.36
2019-04-25T03:45:07.461Z,11.40
2019-04-25T03:46:08.155Z,11.39
2019-04-25T03:47:08.451Z,11.35
2019-04-25T03:48:07.558Z,11.33
2019-04-25T03:49:07.606Z,11.36
2019-04-25T03:50:08.166Z,11.32
2019-04-25T03:51:08.002Z,11.28
2019-04-25T03:52:07.966Z,11.32
2019-04-25T03:53:07.938Z,11.27
2019-04-25T03:54:08.547Z,11.28
2019-04-25T03:55:07.707Z,11.27
2019-04-25T03:56:07.433Z,11.21
2019-04-25T03:57:07.505Z,11.29
2019-04-25T03:58:10.108Z,11.27
2019-04-25T03:59:07.267Z,11.29
2019-04-25T04:00:07.535Z,11.24
2019-04-25T04:01:08.652Z,11.27
2019-04-25T04:02:08.169Z,11.19
2019-04-25T04:03:07.899Z,11.29
2019-04-25T04:04:07.932Z,11.24
2019-04-25T04:05:08.255Z,11.36
2019-04-25T04:06:08.482Z,11.28
2019-04-25T04:07:08.819Z,11.27
2019-04-25T04:08:07.623Z,11.35
2019-04-25T04:09:07.874Z,11.19
2019-04-25T04:10:07.903Z,11.21
2019-04-25T04:11:07.737Z,11.19
2019-04-25T04:12:06.963Z,11.25
2019-04-25T04:13:07.238Z,11.24
2019-04-25T04:14:07.114Z,11.33
2019-04-25T04:15:07.068Z,11.25
2019-04-25T04:16:06.888Z,11.28
2019-04-25T04:17:07.709Z,11.25
2019-04-25T04:18:07.188Z,11.22
2019-04-25T04:19:06.991Z,11.17
2019-04-25T04:20:06.850Z,11.21
2019-04-25T04:21:06.979Z,11.17
2019-04-25T04:22:07.012Z,11.15
2019-04-25T04:23:07.156Z,11.15
2019-04-25T04:24:07.519Z,11.15
2019-04-25T04:25:07.497Z,11.17
2019-04-25T04:26:07.393Z,11.15
2019-04-25T04:27:08.786Z,11.10
2019-04-25T04:28:06.665Z,11.19
2019-04-25T04:29:06.764Z,11.22
2019-04-25T04:30:06.631Z,11.25
2019-04-25T04:31:06.671Z,11.27
2019-04-25T04:32:06.955Z,11.22
2019-04-25T04:33:06.980Z,11.27
2019-04-25T04:34:07.122Z,11.27
2019-04-25T04:35:07.230Z,11.27
2019-04-25T04:36:07.344Z,11.24
2019-04-25T04:37:07.457Z,11.27
2019-04-25T04:38:08.046Z,11.33
2019-04-25T04:39:06.460Z,11.32
2019-04-25T04:40:07.922Z,11.28
2019-04-25T04:41:07.966Z,11.29
2019-04-25T04:42:06.401Z,11.39
2019-04-25T04:43:06.389Z,11.37
2019-04-25T04:44:06.387Z,11.37
2019-04-25T04:45:06.346Z,11.36
2019-04-25T04:46:06.336Z,11.42
2019-04-25T04:47:06.324Z,11.39
2019-04-25T04:48:06.294Z,11.40
2019-04-25T04:49:06.273Z,11.40
2019-04-25T04:50:06.276Z,11.47
2019-04-25T04:51:06.239Z,11.47
2019-04-25T04:52:06.528Z,11.47
2019-04-25T04:53:06.200Z,11.35
2019-04-25T04:54:06.184Z,11.35
2019-04-25T04:55:08.558Z,11.46
2019-04-25T04:56:06.170Z,11.46
2019-04-25T04:57:18.608Z,11.37
2019-04-25T04:58:06.119Z,11.39
2019-04-25T04:59:06.088Z,11.43
2019-04-25T05:00:06.068Z,11.44
2019-04-25T05:01:06.049Z,11.51
2019-04-25T05:02:06.062Z,11.44
2019-04-25T05:03:06.018Z,11.46
2019-04-25T05:04:05.997Z,11.64
2019-04-25T05:05:05.976Z,11.61
2019-04-25T05:06:05.961Z,11.64
2019-04-25T05:07:05.943Z,11.67
2019-04-25T05:08:05.949Z,11.73
2019-04-25T05:09:05.902Z,11.80
2019-04-25T05:10:05.887Z,11.86
2019-04-25T05:11:05.868Z,11.83
2019-04-25T05:12:05.859Z,11.78
2019-04-25T05:13:05.827Z,11.65
2019-04-25T05:14:05.824Z,11.69
2019-04-25T05:15:05.819Z,11.79
2019-04-25T05:16:05.774Z,11.69
2019-04-25T05:17:05.751Z,11.73
2019-04-25T05:18:05.733Z,11.64
2019-04-25T05:19:05.721Z,11.70
2019-04-25T05:20:05.702Z,11.65
2019-04-25T05:21:05.696Z,11.83
2019-04-25T05:22:05.659Z,11.76
2019-04-25T05:23:05.648Z,11.90
2019-04-25T05:24:05.630Z,11.83
2019-04-25T05:25:05.610Z,11.82
2019-04-25T05:26:05.615Z,11.90
2019-04-25T05:27:05.566Z,11.96
2019-04-25T05:28:05.560Z,11.98
2019-04-25T05:29:05.528Z,11.98
2019-04-25T05:30:05.513Z,12.02
2019-04-25T05:31:05.502Z,12.07
2019-04-25T05:32:05.494Z,12.10
2019-04-25T05:33:05.464Z,12.19
2019-04-25T05:34:05.435Z,12.29
2019-04-25T05:35:05.446Z,12.29
2019-04-25T05:36:05.879Z,12.38
2019-04-25T05:37:05.408Z,12.50
2019-04-25T05:38:05.370Z,12.52
2019-04-25T05:39:05.350Z,12.56
2019-04-25T05:40:05.610Z,12.57
2019-04-25T05:41:05.314Z,12.54
2019-04-25T05:42:07.621Z,12.54
2019-04-25T05:43:05.283Z,12.54
2019-04-25T05:44:05.284Z,12.59
2019-04-25T05:45:05.247Z,12.62
2019-04-25T05:46:05.239Z,12.52
2019-04-25T05:47:05.221Z,12.57
2019-04-25T05:48:06.062Z,12.59
2019-04-25T05:49:05.268Z,12.54
2019-04-25T05:50:05.150Z,12.56
2019-04-25T05:51:05.155Z,12.59
2019-04-25T05:52:05.127Z,12.67
2019-04-25T05:53:05.100Z,12.68
2019-04-25T05:54:05.097Z,12.67
2019-04-25T05:55:05.066Z,12.67
2019-04-25T05:56:05.062Z,12.71
2019-04-25T05:57:05.026Z,12.65
2019-04-25T05:58:05.024Z,12.77
2019-04-25T05:59:05.479Z,12.79
2019-04-25T06:00:04.982Z,12.86
2019-04-25T06:01:04.957Z,12.93
2019-04-25T06:02:04.949Z,12.90
2019-04-25T06:03:04.927Z,12.85
2019-04-25T06:04:05.384Z,12.93
2019-04-25T06:05:04.884Z,12.83
2019-04-25T06:06:04.887Z,12.82
2019-04-25T06:07:05.709Z,12.82
2019-04-25T06:08:04.831Z,12.79
2019-04-25T06:09:04.817Z,12.77
2019-04-25T06:10:04.814Z,12.89
2019-04-25T06:11:04.777Z,12.83
2019-04-25T06:12:04.820Z,12.97
2019-04-25T06:13:04.745Z,12.95
2019-04-25T06:14:04.748Z,13.04
2019-04-25T06:15:04.713Z,13.05
2019-04-25T06:16:04.743Z,13.01
2019-04-25T06:17:04.670Z,13.11
2019-04-25T06:18:04.650Z,13.10
2019-04-25T06:19:13.610Z,13.08
2019-04-25T06:20:06.252Z,13.07
2019-04-25T06:21:04.620Z,13.05
2019-04-25T06:22:04.585Z,13.03
2019-04-25T06:23:04.581Z,13.00
2019-04-25T06:24:04.548Z,12.95
2019-04-25T06:25:06.103Z,12.96
2019-04-25T06:26:19.122Z,12.95
2019-04-25T06:27:04.495Z,12.90
2019-04-25T06:28:04.477Z,13.08
2019-04-25T06:29:04.459Z,12.93
2019-04-25T06:30:04.549Z,12.93
2019-04-25T06:31:08.763Z,12.96
2019-04-25T06:32:08.361Z,12.90
2019-04-25T06:33:04.383Z,12.90
2019-04-25T06:34:04.614Z,12.83
2019-04-25T06:35:04.372Z,12.93
2019-04-25T06:36:04.353Z,12.93
2019-04-25T06:37:06.026Z,12.92
2019-04-25T06:38:04.312Z,12.90
2019-04-25T06:39:04.289Z,12.96
2019-04-25T06:40:05.102Z,12.97
2019-04-25T06:41:04.246Z,12.97
2019-04-25T06:42:04.241Z,12.97
2019-04-25T06:43:04.217Z,13.11
2019-04-25T06:44:04.191Z,13.08
2019-04-25T06:45:04.171Z,13.15
2019-04-25T06:46:04.162Z,13.12
2019-04-25T06:47:04.232Z,13.15
2019-04-25T06:48:04.125Z,13.26
2019-04-25T06:49:04.105Z,13.07
2019-04-25T06:50:04.337Z,13.14
2019-04-25T06:51:04.073Z,13.08
2019-04-25T06:52:04.211Z,13.28
2019-04-25T06:53:05.227Z,13.29
2019-04-25T06:54:04.031Z,13.42
2019-04-25T06:55:04.002Z,13.49
2019-04-25T06:56:03.978Z,13.57
2019-04-25T06:57:04.518Z,13.51
2019-04-25T06:58:11.726Z,13.52
2019-04-25T06:59:03.969Z,13.62
2019-04-25T07:00:04.434Z,13.66
2019-04-25T07:01:03.895Z,13.77
2019-04-25T07:02:04.266Z,13.75
2019-04-25T07:03:04.307Z,13.75
2019-04-25T07:04:04.120Z,13.67
2019-04-25T07:05:04.024Z,13.70
2019-04-25T07:06:03.839Z,13.81
2019-04-25T07:07:10.514Z,13.88
2019-04-25T07:08:03.781Z,14.00
2019-04-25T07:09:03.749Z,13.99
2019-04-25T07:10:03.761Z,14.06
2019-04-25T07:11:03.926Z,13.95
2019-04-25T07:12:03.727Z,13.92
2019-04-25T07:13:04.297Z,13.96
2019-04-25T07:14:04.149Z,14.10
2019-04-25T07:15:03.882Z,14.14
2019-04-25T07:16:04.683Z,14.12
2019-04-25T07:17:04.356Z,13.99
2019-04-25T07:18:03.908Z,14.03
2019-04-25T07:19:04.539Z,14.07
2019-04-25T07:20:03.909Z,14.07
2019-04-25T07:21:03.554Z,13.95
2019-04-25T07:22:03.891Z,13.99
2019-04-25T07:23:03.750Z,14.02
2019-04-25T07:24:04.172Z,14.00
2019-04-25T07:25:03.669Z,14.00
2019-04-25T07:26:03.767Z,13.97
2019-04-25T07:27:03.754Z,13.92
2019-04-25T07:28:03.477Z,14.03
2019-04-25T07:29:05.286Z,14.14
2019-04-25T07:30:04.069Z,14.09
2019-04-25T07:31:03.671Z,14.07
2019-04-25T07:32:03.889Z,14.03
2019-04-25T07:33:03.845Z,14.17
2019-04-25T07:34:03.361Z,14.07
2019-04-25T07:35:03.701Z,14.14
2019-04-25T07:36:04.234Z,14.09
2019-04-25T07:37:03.470Z,14.07
2019-04-25T07:38:04.001Z,14.09
2019-04-25T07:39:09.739Z,14.07
2019-04-25T07:40:04.131Z,14.07
2019-04-25T07:41:03.607Z,14.15
2019-04-25T07:42:04.138Z,14.12
2019-04-25T07:43:03.230Z,14.24
2019-04-25T07:44:04.271Z,14.28
2019-04-25T07:45:04.205Z,14.18
2019-04-25T07:46:03.486Z,14.18
2019-04-25T07:47:04.032Z,14.21
2019-04-25T07:48:04.085Z,14.20
2019-04-25T07:49:03.455Z,14.12
2019-04-25T07:50:04.024Z,14.25
2019-04-25T07:51:03.740Z,14.25
2019-04-25T07:52:03.565Z,14.25
2019-04-25T07:53:03.620Z,14.33
2019-04-25T07:54:04.450Z,14.33
2019-04-25T07:55:03.770Z,14.32
2019-04-25T07:56:04.256Z,14.35
2019-04-25T07:57:03.644Z,14.40
2019-04-25T07:58:03.161Z,14.35
2019-04-25T07:59:03.844Z,14.46
2019-04-25T08:00:03.467Z,14.51
2019-04-25T08:01:03.777Z,14.54
2019-04-25T08:02:03.382Z,14.52
2019-04-25T08:03:04.052Z,14.62
2019-04-25T08:04:03.548Z,14.61
2019-04-25T08:05:04.275Z,14.61
2019-04-25T08:06:03.076Z,14.81
2019-04-25T08:07:04.114Z,14.80
2019-04-25T08:08:03.525Z,14.89
2019-04-25T08:09:04.112Z,14.92
2019-04-25T08:10:04.075Z,14.96
2019-04-25T08:11:04.043Z,15.09
2019-04-25T08:12:03.361Z,15.19
2019-04-25T08:13:03.291Z,15.19
2019-04-25T08:14:03.478Z,15.17
2019-04-25T08:15:04.055Z,15.07
2019-04-25T08:16:03.414Z,15.14
2019-04-25T08:17:03.700Z,15.19
2019-04-25T08:18:04.045Z,15.23
2019-04-25T08:19:03.985Z,15.38
2019-04-25T08:20:03.989Z,15.38
2019-04-25T08:21:03.337Z,15.46
2019-04-25T08:22:03.645Z,15.50
2019-04-25T08:23:04.121Z,15.38
2019-04-25T08:24:03.030Z,15.46
2019-04-25T08:25:03.653Z,15.35
2019-04-25T08:26:04.075Z,15.35
2019-04-25T08:27:03.240Z,15.38
2019-04-25T08:28:03.824Z,15.31
2019-04-25T08:29:03.621Z,15.29
2019-04-25T08:30:04.252Z,15.35
2019-04-25T08:31:03.598Z,15.35
2019-04-25T08:32:02.331Z,15.34
2019-04-25T08:33:03.861Z,15.41
2019-04-25T08:34:03.608Z,15.53
2019-04-25T08:35:03.760Z,15.57
2019-04-25T08:36:06.663Z,15.59
2019-04-25T08:37:03.993Z,15.54
2019-04-25T08:38:03.431Z,15.59
2019-04-25T08:39:03.417Z,15.60
2019-04-25T08:40:03.901Z,15.62
2019-04-25T08:41:03.975Z,15.64
2019-04-25T08:42:03.468Z,15.67
2019-04-25T08:43:03.541Z,15.65
2019-04-25T08:44:02.134Z,15.59
2019-04-25T08:45:03.693Z,15.68
2019-04-25T08:46:02.088Z,15.64
2019-04-25T08:47:02.088Z,15.72
2019-04-25T08:48:03.610Z,15.62
2019-04-25T08:49:02.537Z,15.62
2019-04-25T08:50:03.552Z,15.72
2019-04-25T08:51:03.566Z,15.72
2019-04-25T08:52:01.986Z,15.80
2019-04-25T08:53:01.972Z,15.78
2019-04-25T08:54:03.733Z,15.67
2019-04-25T08:55:01.951Z,15.82
2019-04-25T08:56:03.740Z,15.76
2019-04-25T08:57:01.898Z,15.68
2019-04-25T08:58:03.450Z,15.76
2019-04-25T08:59:06.178Z,15.74
2019-04-25T09:00:01.851Z,15.69
2019-04-25T09:01:01.837Z,15.69
2019-04-25T09:02:03.395Z,15.71
2019-04-25T09:03:01.803Z,15.74
2019-04-25T09:04:03.573Z,15.64
2019-04-25T09:05:01.789Z,15.60
2019-04-25T09:06:03.392Z,15.64
2019-04-25T09:07:03.378Z,15.72
2019-04-25T09:08:01.721Z,15.75
2019-04-25T09:09:01.705Z,15.71
2019-04-25T09:10:03.479Z,15.71
2019-04-25T09:11:03.445Z,15.72
2019-04-25T09:12:01.653Z,15.72
2019-04-25T09:13:03.181Z,15.67
2019-04-25T09:14:01.636Z,15.72
2019-04-25T09:15:01.613Z,15.75
2019-04-25T09:16:01.659Z,15.62
2019-04-25T09:17:03.177Z,15.76
2019-04-25T09:18:01.601Z,15.82
2019-04-25T09:19:03.034Z,15.84
2019-04-25T09:20:01.548Z,15.93
2019-04-25T09:21:01.514Z,15.94
2019-04-25T09:22:03.209Z,16.14
2019-04-25T09:23:01.476Z,16.20
2019-04-25T09:24:01.460Z,16.24
2019-04-25T09:25:01.439Z,16.33
2019-04-25T09:26:01.441Z,16.45
2019-04-25T09:27:01.411Z,16.56
2019-04-25T09:28:01.389Z,16.75
2019-04-25T09:29:01.379Z,16.96
2019-04-25T09:30:01.368Z,17.11
2019-04-25T09:31:01.358Z,17.15
2019-04-25T09:32:01.333Z,17.31
2019-04-25T09:33:01.312Z,17.43
2019-04-25T09:34:01.291Z,17.48
2019-04-25T09:35:01.287Z,17.36
2019-04-25T09:36:01.278Z,17.31
2019-04-25T09:37:01.245Z,17.23
2019-04-25T09:38:01.239Z,17.31
2019-04-25T09:39:01.234Z,17.44
2019-04-25T09:40:01.203Z,17.44
2019-04-25T09:41:01.185Z,17.43
2019-04-25T09:42:01.173Z,17.30
2019-04-25T09:43:01.154Z,17.19
2019-04-25T09:44:01.157Z,17.16
2019-04-25T09:45:01.126Z,17.16
2019-04-25T09:46:01.113Z,17.07
2019-04-25T09:47:01.105Z,17.15
2019-04-25T09:48:01.120Z,17.19
2019-04-25T09:49:01.071Z,17.26
2019-04-25T09:50:01.050Z,17.43
2019-04-25T09:51:01.039Z,17.44
2019-04-25T09:52:01.028Z,17.34
2019-04-25T09:53:01.006Z,17.48
2019-04-25T09:54:01.010Z,17.56
2019-04-25T09:55:00.974Z,17.74
2019-04-25T09:56:00.961Z,17.92
2019-04-25T09:57:00.946Z,17.87
2019-04-25T09:58:00.931Z,17.82
2019-04-25T09:59:00.932Z,17.78
2019-04-25T10:00:00.900Z,17.77
2019-04-25T10:01:00.892Z,17.71
2019-04-25T10:02:00.884Z,17.70
2019-04-25T10:03:00.867Z,17.62
2019-04-25T10:04:00.857Z,17.59
2019-04-25T10:05:00.830Z,17.56
2019-04-25T10:06:00.814Z,17.68
2019-04-25T10:07:00.819Z,17.46
2019-04-25T10:08:00.782Z,17.54
2019-04-25T10:09:00.766Z,17.52
2019-04-25T10:10:00.750Z,17.55
2019-04-25T10:11:00.737Z,17.52
2019-04-25T10:12:00.718Z,17.46
2019-04-25T10:13:00.726Z,17.46
2019-04-25T10:14:00.700Z,17.40
2019-04-25T10:15:00.673Z,17.49
2019-04-25T10:16:00.671Z,17.51
2019-04-25T10:17:00.648Z,17.37
2019-04-25T10:18:00.629Z,17.25
2019-04-25T10:19:00.642Z,17.31
2019-04-25T10:20:00.599Z,17.26
2019-04-25T10:21:00.585Z,17.22
2019-04-25T10:22:00.575Z,17.36
2019-04-25T10:23:00.561Z,17.37
2019-04-25T10:24:00.538Z,17.43
2019-04-25T10:25:00.882Z,17.38
2019-04-25T10:26:00.509Z,17.38
2019-04-25T10:27:00.520Z,17.44
2019-04-25T10:28:00.484Z,17.41
2019-04-25T10:29:00.468Z,17.54
2019-04-25T10:30:00.440Z,17.62
2019-04-25T10:31:00.451Z,17.89
2019-04-25T10:32:00.425Z,17.89
2019-04-25T10:33:00.430Z,17.84
2019-04-25T10:34:00.387Z,17.97
2019-04-25T10:35:00.371Z,18.07
2019-04-25T10:36:01.224Z,18.29
2019-04-25T10:37:00.351Z,18.57
2019-04-25T10:38:00.343Z,18.54
2019-04-25T10:39:07.525Z,18.72
2019-04-25T10:40:00.300Z,18.84
2019-04-25T10:41:00.281Z,18.95
2019-04-25T10:42:00.276Z,18.84
2019-04-25T10:43:00.251Z,18.78
2019-04-25T10:44:00.238Z,18.84
2019-04-25T10:45:00.224Z,18.94
2019-04-25T10:46:00.206Z,19.11
2019-04-25T10:47:00.213Z,19.19
2019-04-25T10:48:00.174Z,19.18
2019-04-25T10:49:00.165Z,18.81
2019-04-25T10:50:00.155Z,18.98
2019-04-25T10:51:00.151Z,18.81
2019-04-25T10:52:00.120Z,18.87
2019-04-25T10:53:00.117Z,18.78
2019-04-25T10:54:00.089Z,18.66
2019-04-25T10:55:00.084Z,18.55
2019-04-25T10:56:00.059Z,18.66
2019-04-25T10:57:00.068Z,18.72
2019-04-25T10:58:00.039Z,18.62
2019-04-25T10:59:00.024Z,18.67
2019-04-25T11:00:06.296Z,18.67
2019-04-25T11:00:59.994Z,18.73
2019-04-25T11:02:00.006Z,18.80
2019-04-25T11:02:59.962Z,18.81
2019-04-25T11:03:59.952Z,18.78
2019-04-25T11:04:59.934Z,18.85
2019-04-25T11:05:59.938Z,18.99
2019-04-25T11:06:59.905Z,19.04
2019-04-25T11:07:59.889Z,19.07
2019-04-25T11:08:59.877Z,19.18
2019-04-25T11:09:59.858Z,19.40
2019-04-25T11:10:59.864Z,19.58
2019-04-25T11:11:59.850Z,19.43
2019-04-25T11:12:59.817Z,19.28
2019-04-25T11:14:00.003Z,19.19
2019-04-25T11:14:59.789Z,18.99
2019-04-25T11:15:59.800Z,18.91
2019-04-25T11:16:59.780Z,18.88
2019-04-25T11:17:59.758Z,18.88
2019-04-25T11:18:59.733Z,18.82
2019-04-25T11:19:59.721Z,18.87
2019-04-25T11:20:59.703Z,18.88
2019-04-25T11:21:59.697Z,18.94
2019-04-25T11:22:59.728Z,19.00
2019-04-25T11:23:59.656Z,18.91
2019-04-25T11:24:59.650Z,18.94
2019-04-25T11:25:59.635Z,18.87
2019-04-25T11:26:59.623Z,18.82
2019-04-25T11:27:59.737Z,18.81
2019-04-25T11:28:59.626Z,18.76
2019-04-25T11:30:09.264Z,19.00
2019-04-25T11:30:59.566Z,19.08
2019-04-25T11:31:59.559Z,19.28
2019-04-25T11:32:59.541Z,19.51
2019-04-25T11:33:59.521Z,19.84
2019-04-25T11:34:59.714Z,19.96
2019-04-25T11:35:59.493Z,20.29
2019-04-25T11:36:59.481Z,20.51
2019-04-25T11:37:59.460Z,20.77
2019-04-25T11:38:59.462Z,21.13
2019-04-25T11:39:59.453Z,21.31
2019-04-25T11:40:59.423Z,21.24
2019-04-25T11:41:59.413Z,21.27
2019-04-25T11:42:59.421Z,21.21
2019-04-25T11:44:00.522Z,21.40
2019-04-25T11:44:59.369Z,21.44
2019-04-25T11:45:59.376Z,21.56
2019-04-25T11:46:59.346Z,21.86
2019-04-25T11:47:59.331Z,21.64
2019-04-25T11:48:59.313Z,21.46
2019-04-25T11:49:59.300Z,21.71
2019-04-25T11:50:59.303Z,21.72
2019-04-25T11:51:59.288Z,21.61
2019-04-25T11:52:59.258Z,21.65
2019-04-25T11:53:59.249Z,21.88
2019-04-25T11:54:59.240Z,22.02
2019-04-25T11:55:59.244Z,22.18
2019-04-25T11:56:59.223Z,22.35
2019-04-25T11:57:59.208Z,22.55
2019-04-25T11:58:59.207Z,22.49
2019-04-25T11:59:59.174Z,22.43
2019-04-25T12:00:59.184Z,22.35
2019-04-25T12:01:59.147Z,22.31
2019-04-25T12:02:59.132Z,22.45
2019-04-25T12:03:59.228Z,22.57
2019-04-25T12:04:59.134Z,22.43
2019-04-25T12:05:59.100Z,22.67
2019-04-25T12:06:59.087Z,22.82
2019-04-25T12:07:59.091Z,23.13
2019-04-25T12:08:59.100Z,23.16
2019-04-25T12:09:59.057Z,23.12
2019-04-25T12:10:59.083Z,22.79
2019-04-25T12:11:59.087Z,22.92
2019-04-25T12:12:59.028Z,22.90
2019-04-25T12:13:59.026Z,22.75
2019-04-25T12:14:58.990Z,22.51
2019-04-25T12:15:58.976Z,22.54
2019-04-25T12:16:58.966Z,22.62
2019-04-25T12:17:58.949Z,22.92
2019-04-25T12:18:58.949Z,22.95
2019-04-25T12:19:58.948Z,22.80
2019-04-25T12:20:58.915Z,22.94
2019-04-25T12:21:58.902Z,23.10
2019-04-25T12:23:08.502Z,23.35
2019-04-25T12:24:01.648Z,23.33
2019-04-25T12:24:58.884Z,22.90
2019-04-25T12:25:58.854Z,22.68
2019-04-25T12:26:58.845Z,23.02
2019-04-25T12:27:58.831Z,23.05
2019-04-25T12:28:58.823Z,23.20
2019-04-25T12:29:59.527Z,23.51
2019-04-25T12:30:58.848Z,23.76
2019-04-25T12:31:58.787Z,23.66
2019-04-25T12:32:58.793Z,23.70
2019-04-25T12:33:58.940Z,23.57
2019-04-25T12:34:58.769Z,23.53
2019-04-25T12:35:58.758Z,23.69
2019-04-25T12:36:59.680Z,23.93
2019-04-25T12:37:58.730Z,24.20
2019-04-25T12:38:58.819Z,23.17
2019-04-25T12:39:58.701Z,23.16
2019-04-25T12:40:58.699Z,23.31
2019-04-25T12:41:58.687Z,23.33
2019-04-25T12:42:58.693Z,23.36
2019-04-25T12:43:58.679Z,23.51
2019-04-25T12:44:58.648Z,23.53
2019-04-25T12:45:58.641Z,23.31
2019-04-25T12:46:58.633Z,23.27
2019-04-25T12:49:53.090Z,22.76
2019-04-25T12:50:52.134Z,23.15
2019-04-25T12:51:52.678Z,23.38
2019-04-25T12:52:54.520Z,23.53
2019-04-25T12:53:53.928Z,24.05